sensor_id;sensor_type;location;lat;lon;timestamp;P1;durP1;ratioP1;P2;durP2;ratioP2
69087;SDS011;56190;43.562;5.036;2024-01-30T00:00:54;16.58;;;14.07;;
69087;SDS011;56190;43.562;5.036;2024-01-30T00:03:20;16.13;;;12.88;;
69087;SDS011;56190;43.562;5.036;2024-01-30T00:05:45;17.42;;;12.93;;
69087;SDS011;56190;43.562;5.036;2024-01-30T00:08:10;14.98;;;12.15;;
69087;SDS011;56190;43.562;5.036;2024-01-30T00:10:36;16.60;;;13.25;;
69087;SDS011;56190;43.562;5.036;2024-01-30T00:13:01;16.38;;;12.27;;
69087;SDS011;56190;43.562;5.036;2024-01-30T00:15:27;18.15;;;11.95;;
69087;SDS011;56190;43.562;5.036;2024-01-30T00:17:52;14.23;;;11.60;;
69087;SDS011;56190;43.562;5.036;2024-01-30T00:20:17;15.32;;;11.82;;
69087;SDS011;56190;43.562;5.036;2024-01-30T00:22:43;14.30;;;11.85;;
69087;SDS011;56190;43.562;5.036;2024-01-30T00:25:08;14.10;;;11.57;;
69087;SDS011;56190;43.562;5.036;2024-01-30T00:27:33;14.45;;;11.98;;
69087;SDS011;56190;43.562;5.036;2024-01-30T00:29:58;15.60;;;12.18;;
69087;SDS011;56190;43.562;5.036;2024-01-30T00:32:24;15.32;;;12.52;;
69087;SDS011;56190;43.562;5.036;2024-01-30T00:34:49;15.35;;;12.00;;
69087;SDS011;56190;43.562;5.036;2024-01-30T00:37:14;14.50;;;11.10;;
69087;SDS011;56190;43.562;5.036;2024-01-30T00:39:39;12.43;;;11.10;;
69087;SDS011;56190;43.562;5.036;2024-01-30T00:42:05;11.77;;;10.35;;
69087;SDS011;56190;43.562;5.036;2024-01-30T00:44:30;14.45;;;10.82;;
69087;SDS011;56190;43.562;5.036;2024-01-30T00:46:55;13.65;;;9.98;;
69087;SDS011;56190;43.562;5.036;2024-01-30T00:49:20;11.90;;;9.38;;
69087;SDS011;56190;43.562;5.036;2024-01-30T00:51:46;12.68;;;9.40;;
69087;SDS011;56190;43.562;5.036;2024-01-30T00:54:11;10.98;;;9.77;;
69087;SDS011;56190;43.562;5.036;2024-01-30T00:56:36;12.07;;;10.25;;
69087;SDS011;56190;43.562;5.036;2024-01-30T00:59:01;11.73;;;9.82;;
69087;SDS011;56190;43.562;5.036;2024-01-30T01:01:27;11.23;;;9.25;;
69087;SDS011;56190;43.562;5.036;2024-01-30T01:03:52;11.25;;;9.15;;
69087;SDS011;56190;43.562;5.036;2024-01-30T01:06:17;12.73;;;10.20;;
69087;SDS011;56190;43.562;5.036;2024-01-30T01:08:42;11.57;;;9.32;;
69087;SDS011;56190;43.562;5.036;2024-01-30T01:11:08;12.00;;;9.52;;
69087;SDS011;56190;43.562;5.036;2024-01-30T01:13:33;12.43;;;9.35;;
69087;SDS011;56190;43.562;5.036;2024-01-30T01:15:59;11.23;;;9.00;;
69087;SDS011;56190;43.562;5.036;2024-01-30T01:18:24;12.10;;;9.48;;
69087;SDS011;56190;43.562;5.036;2024-01-30T01:20:49;10.60;;;9.55;;
69087;SDS011;56190;43.562;5.036;2024-01-30T01:23:15;11.60;;;9.27;;
69087;SDS011;56190;43.562;5.036;2024-01-30T01:25:40;12.85;;;9.43;;
69087;SDS011;56190;43.562;5.036;2024-01-30T01:28:05;10.45;;;8.90;;
69087;SDS011;56190;43.562;5.036;2024-01-30T01:30:31;13.27;;;9.48;;
69087;SDS011;56190;43.562;5.036;2024-01-30T01:32:56;12.40;;;9.20;;
69087;SDS011;56190;43.562;5.036;2024-01-30T01:35:23;11.50;;;9.20;;
69087;SDS011;56190;43.562;5.036;2024-01-30T01:37:49;11.45;;;8.90;;
69087;SDS011;56190;43.562;5.036;2024-01-30T01:40:20;11.35;;;8.43;;
69087;SDS011;56190;43.562;5.036;2024-01-30T01:42:45;9.13;;;8.23;;
69087;SDS011;56190;43.562;5.036;2024-01-30T01:45:10;12.20;;;8.20;;
69087;SDS011;56190;43.562;5.036;2024-01-30T01:47:36;9.05;;;7.82;;
69087;SDS011;56190;43.562;5.036;2024-01-30T01:50:01;10.38;;;8.05;;
69087;SDS011;56190;43.562;5.036;2024-01-30T01:52:27;10.40;;;8.00;;
69087;SDS011;56190;43.562;5.036;2024-01-30T01:54:52;11.20;;;7.93;;
69087;SDS011;56190;43.562;5.036;2024-01-30T01:57:18;8.13;;;6.90;;
69087;SDS011;56190;43.562;5.036;2024-01-30T01:59:43;8.55;;;7.00;;
69087;SDS011;56190;43.562;5.036;2024-01-30T02:02:08;8.93;;;7.32;;
69087;SDS011;56190;43.562;5.036;2024-01-30T02:04:36;10.65;;;6.80;;
69087;SDS011;56190;43.562;5.036;2024-01-30T02:07:01;9.10;;;6.75;;
69087;SDS011;56190;43.562;5.036;2024-01-30T02:09:26;9.55;;;7.15;;
69087;SDS011;56190;43.562;5.036;2024-01-30T02:11:51;10.27;;;6.93;;
69087;SDS011;56190;43.562;5.036;2024-01-30T02:14:17;7.82;;;6.63;;
69087;SDS011;56190;43.562;5.036;2024-01-30T02:16:42;10.32;;;7.28;;
69087;SDS011;56190;43.562;5.036;2024-01-30T02:19:07;7.90;;;7.10;;
69087;SDS011;56190;43.562;5.036;2024-01-30T02:21:33;7.72;;;6.30;;
69087;SDS011;56190;43.562;5.036;2024-01-30T02:23:58;8.77;;;6.70;;
69087;SDS011;56190;43.562;5.036;2024-01-30T02:26:24;8.52;;;6.65;;
69087;SDS011;56190;43.562;5.036;2024-01-30T02:28:50;8.27;;;6.75;;
69087;SDS011;56190;43.562;5.036;2024-01-30T02:31:15;8.07;;;6.35;;
69087;SDS011;56190;43.562;5.036;2024-01-30T02:33:40;7.82;;;6.65;;
69087;SDS011;56190;43.562;5.036;2024-01-30T02:36:06;8.43;;;6.50;;
69087;SDS011;56190;43.562;5.036;2024-01-30T02:38:31;9.30;;;6.97;;
69087;SDS011;56190;43.562;5.036;2024-01-30T02:40:56;7.82;;;6.07;;
69087;SDS011;56190;43.562;5.036;2024-01-30T02:43:22;10.00;;;6.85;;
69087;SDS011;56190;43.562;5.036;2024-01-30T02:45:47;8.98;;;6.28;;
69087;SDS011;56190;43.562;5.036;2024-01-30T02:48:13;8.45;;;6.57;;
69087;SDS011;56190;43.562;5.036;2024-01-30T02:50:38;7.22;;;5.78;;
69087;SDS011;56190;43.562;5.036;2024-01-30T02:53:03;7.82;;;6.15;;
69087;SDS011;56190;43.562;5.036;2024-01-30T02:55:28;8.80;;;6.40;;
69087;SDS011;56190;43.562;5.036;2024-01-30T02:57:54;9.43;;;6.63;;
69087;SDS011;56190;43.562;5.036;2024-01-30T03:00:19;7.85;;;6.25;;
69087;SDS011;56190;43.562;5.036;2024-01-30T03:02:45;7.07;;;5.85;;
69087;SDS011;56190;43.562;5.036;2024-01-30T03:05:10;8.30;;;5.93;;
69087;SDS011;56190;43.562;5.036;2024-01-30T03:07:35;7.25;;;5.65;;
69087;SDS011;56190;43.562;5.036;2024-01-30T03:10:01;7.28;;;5.88;;
69087;SDS011;56190;43.562;5.036;2024-01-30T03:12:26;8.15;;;5.65;;
69087;SDS011;56190;43.562;5.036;2024-01-30T03:14:51;8.65;;;6.47;;
69087;SDS011;56190;43.562;5.036;2024-01-30T03:17:17;7.57;;;6.13;;
69087;SDS011;56190;43.562;5.036;2024-01-30T03:19:42;7.05;;;5.68;;
69087;SDS011;56190;43.562;5.036;2024-01-30T03:22:08;8.02;;;6.28;;
69087;SDS011;56190;43.562;5.036;2024-01-30T03:24:33;8.40;;;5.88;;
69087;SDS011;56190;43.562;5.036;2024-01-30T03:26:58;6.80;;;5.78;;
69087;SDS011;56190;43.562;5.036;2024-01-30T03:29:23;9.27;;;5.75;;
69087;SDS011;56190;43.562;5.036;2024-01-30T03:31:49;7.70;;;5.65;;
69087;SDS011;56190;43.562;5.036;2024-01-30T03:34:14;8.15;;;5.82;;
69087;SDS011;56190;43.562;5.036;2024-01-30T03:36:39;6.78;;;5.90;;
69087;SDS011;56190;43.562;5.036;2024-01-30T03:39:05;6.85;;;5.00;;
69087;SDS011;56190;43.562;5.036;2024-01-30T03:41:31;7.75;;;5.30;;
69087;SDS011;56190;43.562;5.036;2024-01-30T03:43:56;6.72;;;5.63;;
69087;SDS011;56190;43.562;5.036;2024-01-30T03:46:21;7.18;;;5.55;;
69087;SDS011;56190;43.562;5.036;2024-01-30T03:48:46;6.35;;;5.20;;
69087;SDS011;56190;43.562;5.036;2024-01-30T03:51:12;6.43;;;5.45;;
69087;SDS011;56190;43.562;5.036;2024-01-30T03:53:44;7.80;;;5.70;;
69087;SDS011;56190;43.562;5.036;2024-01-30T03:56:11;6.15;;;5.45;;
69087;SDS011;56190;43.562;5.036;2024-01-30T03:58:36;5.90;;;5.20;;
69087;SDS011;56190;43.562;5.036;2024-01-30T04:01:01;9.27;;;5.72;;
69087;SDS011;56190;43.562;5.036;2024-01-30T04:03:27;7.78;;;5.32;;
69087;SDS011;56190;43.562;5.036;2024-01-30T04:05:52;6.35;;;5.60;;
69087;SDS011;56190;43.562;5.036;2024-01-30T04:08:18;8.20;;;5.45;;
69087;SDS011;56190;43.562;5.036;2024-01-30T04:10:43;8.43;;;5.50;;
69087;SDS011;56190;43.562;5.036;2024-01-30T04:13:09;6.65;;;5.25;;
69087;SDS011;56190;43.562;5.036;2024-01-30T04:15:34;5.85;;;5.13;;
69087;SDS011;56190;43.562;5.036;2024-01-30T04:17:59;5.90;;;4.90;;
69087;SDS011;56190;43.562;5.036;2024-01-30T04:20:25;7.80;;;6.10;;
69087;SDS011;56190;43.562;5.036;2024-01-30T04:22:50;8.45;;;5.43;;
69087;SDS011;56190;43.562;5.036;2024-01-30T04:25:16;6.68;;;5.20;;
69087;SDS011;56190;43.562;5.036;2024-01-30T04:27:41;6.47;;;5.07;;
69087;SDS011;56190;43.562;5.036;2024-01-30T04:30:06;7.70;;;5.53;;
69087;SDS011;56190;43.562;5.036;2024-01-30T04:32:32;8.52;;;5.90;;
69087;SDS011;56190;43.562;5.036;2024-01-30T04:34:57;7.40;;;5.80;;
69087;SDS011;56190;43.562;5.036;2024-01-30T04:37:23;7.25;;;5.85;;
69087;SDS011;56190;43.562;5.036;2024-01-30T04:39:48;6.60;;;5.45;;
69087;SDS011;56190;43.562;5.036;2024-01-30T04:42:13;7.05;;;5.70;;
69087;SDS011;56190;43.562;5.036;2024-01-30T04:44:38;6.88;;;5.95;;
69087;SDS011;56190;43.562;5.036;2024-01-30T04:47:04;6.57;;;5.38;;
69087;SDS011;56190;43.562;5.036;2024-01-30T04:49:31;8.15;;;5.80;;
69087;SDS011;56190;43.562;5.036;2024-01-30T04:51:56;8.10;;;5.88;;
69087;SDS011;56190;43.562;5.036;2024-01-30T04:54:21;7.72;;;5.78;;
69087;SDS011;56190;43.562;5.036;2024-01-30T04:56:47;7.00;;;5.75;;
69087;SDS011;56190;43.562;5.036;2024-01-30T04:59:12;8.10;;;5.70;;
69087;SDS011;56190;43.562;5.036;2024-01-30T05:01:37;7.45;;;6.05;;
69087;SDS011;56190;43.562;5.036;2024-01-30T05:04:03;6.97;;;5.15;;
69087;SDS011;56190;43.562;5.036;2024-01-30T05:06:28;7.50;;;5.63;;
69087;SDS011;56190;43.562;5.036;2024-01-30T05:08:54;6.20;;;5.28;;
69087;SDS011;56190;43.562;5.036;2024-01-30T05:11:19;8.05;;;5.70;;
69087;SDS011;56190;43.562;5.036;2024-01-30T05:13:44;5.18;;;4.68;;
69087;SDS011;56190;43.562;5.036;2024-01-30T05:16:10;8.15;;;5.40;;
69087;SDS011;56190;43.562;5.036;2024-01-30T05:18:35;6.60;;;5.43;;
69087;SDS011;56190;43.562;5.036;2024-01-30T05:21:01;7.95;;;5.70;;
69087;SDS011;56190;43.562;5.036;2024-01-30T05:23:26;6.45;;;5.35;;
69087;SDS011;56190;43.562;5.036;2024-01-30T05:25:52;6.38;;;5.35;;
69087;SDS011;56190;43.562;5.036;2024-01-30T05:28:17;5.95;;;4.70;;
69087;SDS011;56190;43.562;5.036;2024-01-30T05:30:42;6.50;;;4.88;;
69087;SDS011;56190;43.562;5.036;2024-01-30T05:33:07;8.45;;;5.15;;
69087;SDS011;56190;43.562;5.036;2024-01-30T05:35:33;6.25;;;4.90;;
69087;SDS011;56190;43.562;5.036;2024-01-30T05:37:58;6.90;;;5.25;;
69087;SDS011;56190;43.562;5.036;2024-01-30T05:40:23;7.53;;;5.20;;
69087;SDS011;56190;43.562;5.036;2024-01-30T05:42:48;5.68;;;4.93;;
69087;SDS011;56190;43.562;5.036;2024-01-30T05:45:14;8.00;;;5.10;;
69087;SDS011;56190;43.562;5.036;2024-01-30T05:47:39;6.28;;;5.00;;
69087;SDS011;56190;43.562;5.036;2024-01-30T05:50:05;7.00;;;4.75;;
69087;SDS011;56190;43.562;5.036;2024-01-30T05:52:30;5.55;;;4.95;;
69087;SDS011;56190;43.562;5.036;2024-01-30T05:54:55;6.30;;;4.95;;
69087;SDS011;56190;43.562;5.036;2024-01-30T05:57:21;4.85;;;4.32;;
69087;SDS011;56190;43.562;5.036;2024-01-30T05:59:46;6.68;;;4.95;;
69087;SDS011;56190;43.562;5.036;2024-01-30T06:02:13;6.65;;;5.13;;
69087;SDS011;56190;43.562;5.036;2024-01-30T06:04:38;6.05;;;5.07;;
69087;SDS011;56190;43.562;5.036;2024-01-30T06:07:03;6.40;;;4.72;;
69087;SDS011;56190;43.562;5.036;2024-01-30T06:09:30;8.40;;;5.10;;
69087;SDS011;56190;43.562;5.036;2024-01-30T06:11:55;6.18;;;4.63;;
69087;SDS011;56190;43.562;5.036;2024-01-30T06:14:21;6.07;;;4.80;;
69087;SDS011;56190;43.562;5.036;2024-01-30T06:16:46;8.65;;;5.03;;
69087;SDS011;56190;43.562;5.036;2024-01-30T06:19:11;5.97;;;5.00;;
69087;SDS011;56190;43.562;5.036;2024-01-30T06:21:36;5.95;;;4.70;;
69087;SDS011;56190;43.562;5.036;2024-01-30T06:24:03;5.95;;;4.55;;
69087;SDS011;56190;43.562;5.036;2024-01-30T06:26:28;8.00;;;5.30;;
69087;SDS011;56190;43.562;5.036;2024-01-30T06:28:54;7.80;;;5.05;;
69087;SDS011;56190;43.562;5.036;2024-01-30T06:31:19;7.38;;;5.32;;
69087;SDS011;56190;43.562;5.036;2024-01-30T06:33:46;6.80;;;5.45;;
69087;SDS011;56190;43.562;5.036;2024-01-30T06:36:11;8.20;;;5.78;;
69087;SDS011;56190;43.562;5.036;2024-01-30T06:38:36;5.88;;;4.82;;
69087;SDS011;56190;43.562;5.036;2024-01-30T06:41:02;8.32;;;4.90;;
69087;SDS011;56190;43.562;5.036;2024-01-30T06:43:27;6.35;;;5.00;;
69087;SDS011;56190;43.562;5.036;2024-01-30T06:45:52;6.47;;;4.72;;
69087;SDS011;56190;43.562;5.036;2024-01-30T06:48:18;6.55;;;4.82;;
69087;SDS011;56190;43.562;5.036;2024-01-30T06:50:43;5.88;;;4.80;;
69087;SDS011;56190;43.562;5.036;2024-01-30T06:53:08;6.68;;;4.63;;
69087;SDS011;56190;43.562;5.036;2024-01-30T06:55:34;9.25;;;5.43;;
69087;SDS011;56190;43.562;5.036;2024-01-30T06:57:59;6.68;;;5.10;;
69087;SDS011;56190;43.562;5.036;2024-01-30T07:00:24;5.88;;;4.88;;
69087;SDS011;56190;43.562;5.036;2024-01-30T07:02:49;6.38;;;5.03;;
69087;SDS011;56190;43.562;5.036;2024-01-30T07:05:15;7.15;;;5.00;;
69087;SDS011;56190;43.562;5.036;2024-01-30T07:07:40;6.35;;;4.90;;
69087;SDS011;56190;43.562;5.036;2024-01-30T07:10:06;6.38;;;5.10;;
69087;SDS011;56190;43.562;5.036;2024-01-30T07:12:31;5.80;;;5.10;;
69087;SDS011;56190;43.562;5.036;2024-01-30T07:14:57;8.07;;;5.30;;
69087;SDS011;56190;43.562;5.036;2024-01-30T07:17:24;5.65;;;4.78;;
69087;SDS011;56190;43.562;5.036;2024-01-30T07:19:50;8.57;;;5.50;;
69087;SDS011;56190;43.562;5.036;2024-01-30T07:22:15;6.88;;;5.50;;
69087;SDS011;56190;43.562;5.036;2024-01-30T07:24:43;6.25;;;4.90;;
69087;SDS011;56190;43.562;5.036;2024-01-30T07:27:13;7.07;;;4.80;;
69087;SDS011;56190;43.562;5.036;2024-01-30T07:29:39;6.57;;;4.57;;
69087;SDS011;56190;43.562;5.036;2024-01-30T07:32:04;5.63;;;4.60;;
69087;SDS011;56190;43.562;5.036;2024-01-30T07:34:30;7.35;;;5.10;;
69087;SDS011;56190;43.562;5.036;2024-01-30T07:36:55;8.82;;;4.88;;
69087;SDS011;56190;43.562;5.036;2024-01-30T07:39:21;5.95;;;4.30;;
69087;SDS011;56190;43.562;5.036;2024-01-30T07:41:46;7.00;;;4.93;;
69087;SDS011;56190;43.562;5.036;2024-01-30T07:44:11;9.90;;;5.57;;
69087;SDS011;56190;43.562;5.036;2024-01-30T07:46:36;8.65;;;6.00;;
69087;SDS011;56190;43.562;5.036;2024-01-30T07:49:02;10.43;;;5.78;;
69087;SDS011;56190;43.562;5.036;2024-01-30T07:51:27;7.93;;;5.30;;
69087;SDS011;56190;43.562;5.036;2024-01-30T07:53:54;6.93;;;5.22;;
69087;SDS011;56190;43.562;5.036;2024-01-30T07:56:19;7.13;;;5.20;;
69087;SDS011;56190;43.562;5.036;2024-01-30T07:58:44;8.23;;;4.85;;
69087;SDS011;56190;43.562;5.036;2024-01-30T08:01:10;8.10;;;5.38;;
69087;SDS011;56190;43.562;5.036;2024-01-30T08:03:35;6.03;;;4.40;;
69087;SDS011;56190;43.562;5.036;2024-01-30T08:06:05;9.13;;;5.78;;
69087;SDS011;56190;43.562;5.036;2024-01-30T08:08:31;13.02;;;8.10;;
69087;SDS011;56190;43.562;5.036;2024-01-30T08:10:57;18.00;;;12.43;;
69087;SDS011;56190;43.562;5.036;2024-01-30T08:13:22;17.17;;;14.00;;
69087;SDS011;56190;43.562;5.036;2024-01-30T08:15:47;19.60;;;14.25;;
69087;SDS011;56190;43.562;5.036;2024-01-30T08:18:12;16.40;;;12.10;;
69087;SDS011;56190;43.562;5.036;2024-01-30T08:20:37;11.10;;;7.40;;
69087;SDS011;56190;43.562;5.036;2024-01-30T08:23:03;14.93;;;11.65;;
69087;SDS011;56190;43.562;5.036;2024-01-30T08:25:28;11.73;;;8.80;;
69087;SDS011;56190;43.562;5.036;2024-01-30T08:27:54;11.30;;;7.32;;
69087;SDS011;56190;43.562;5.036;2024-01-30T08:30:19;10.95;;;6.60;;
69087;SDS011;56190;43.562;5.036;2024-01-30T08:32:44;6.15;;;4.68;;
69087;SDS011;56190;43.562;5.036;2024-01-30T08:35:09;4.97;;;3.88;;
69087;SDS011;56190;43.562;5.036;2024-01-30T08:37:38;4.85;;;3.60;;
69087;SDS011;56190;43.562;5.036;2024-01-30T08:40:04;4.63;;;3.50;;
69087;SDS011;56190;43.562;5.036;2024-01-30T08:42:29;5.28;;;3.65;;
69087;SDS011;56190;43.562;5.036;2024-01-30T08:44:54;16.92;;;11.43;;
69087;SDS011;56190;43.562;5.036;2024-01-30T08:47:21;14.63;;;9.75;;
69087;SDS011;56190;43.562;5.036;2024-01-30T08:49:46;12.55;;;9.55;;
69087;SDS011;56190;43.562;5.036;2024-01-30T08:52:12;14.23;;;10.77;;
69087;SDS011;56190;43.562;5.036;2024-01-30T08:54:37;12.20;;;8.57;;
69087;SDS011;56190;43.562;5.036;2024-01-30T08:57:02;11.45;;;8.18;;
69087;SDS011;56190;43.562;5.036;2024-01-30T08:59:29;6.22;;;4.72;;
69087;SDS011;56190;43.562;5.036;2024-01-30T09:01:54;8.50;;;4.70;;
69087;SDS011;56190;43.562;5.036;2024-01-30T09:04:20;7.25;;;4.78;;
69087;SDS011;56190;43.562;5.036;2024-01-30T09:06:46;6.05;;;4.07;;
69087;SDS011;56190;43.562;5.036;2024-01-30T09:09:11;5.32;;;3.70;;
69087;SDS011;56190;43.562;5.036;2024-01-30T09:11:36;6.53;;;4.00;;
69087;SDS011;56190;43.562;5.036;2024-01-30T09:14:02;4.53;;;4.07;;
69087;SDS011;56190;43.562;5.036;2024-01-30T09:16:27;6.72;;;3.60;;
69087;SDS011;56190;43.562;5.036;2024-01-30T09:18:52;4.40;;;3.70;;
69087;SDS011;56190;43.562;5.036;2024-01-30T09:21:17;4.00;;;3.53;;
69087;SDS011;56190;43.562;5.036;2024-01-30T09:23:42;6.18;;;3.80;;
69087;SDS011;56190;43.562;5.036;2024-01-30T09:26:08;8.07;;;4.32;;
69087;SDS011;56190;43.562;5.036;2024-01-30T09:28:33;5.57;;;4.13;;
69087;SDS011;56190;43.562;5.036;2024-01-30T09:30:59;6.18;;;4.20;;
69087;SDS011;56190;43.562;5.036;2024-01-30T09:33:24;5.00;;;3.83;;
69087;SDS011;56190;43.562;5.036;2024-01-30T09:35:49;4.40;;;3.53;;
69087;SDS011;56190;43.562;5.036;2024-01-30T09:38:16;4.22;;;3.20;;
69087;SDS011;56190;43.562;5.036;2024-01-30T09:40:41;4.57;;;3.65;;
69087;SDS011;56190;43.562;5.036;2024-01-30T09:43:07;4.88;;;3.75;;
69087;SDS011;56190;43.562;5.036;2024-01-30T09:45:32;9.85;;;6.22;;
69087;SDS011;56190;43.562;5.036;2024-01-30T09:47:58;12.65;;;7.97;;
69087;SDS011;56190;43.562;5.036;2024-01-30T09:50:24;12.93;;;8.75;;
69087;SDS011;56190;43.562;5.036;2024-01-30T09:52:49;13.00;;;8.95;;
69087;SDS011;56190;43.562;5.036;2024-01-30T09:55:15;15.95;;;9.77;;
69087;SDS011;56190;43.562;5.036;2024-01-30T09:57:41;15.90;;;10.57;;
69087;SDS011;56190;43.562;5.036;2024-01-30T10:00:06;20.00;;;12.32;;
69087;SDS011;56190;43.562;5.036;2024-01-30T10:02:35;16.00;;;11.40;;
69087;SDS011;56190;43.562;5.036;2024-01-30T10:05:01;17.23;;;12.13;;
69087;SDS011;56190;43.562;5.036;2024-01-30T10:07:26;17.48;;;12.43;;
69087;SDS011;56190;43.562;5.036;2024-01-30T10:09:54;15.25;;;11.68;;
69087;SDS011;56190;43.562;5.036;2024-01-30T10:12:23;15.02;;;11.63;;
69087;SDS011;56190;43.562;5.036;2024-01-30T10:14:48;15.20;;;9.85;;
69087;SDS011;56190;43.562;5.036;2024-01-30T10:17:13;14.00;;;9.57;;
69087;SDS011;56190;43.562;5.036;2024-01-30T10:19:39;12.40;;;9.27;;
69087;SDS011;56190;43.562;5.036;2024-01-30T10:22:05;13.02;;;9.73;;
69087;SDS011;56190;43.562;5.036;2024-01-30T10:24:30;14.18;;;9.75;;
69087;SDS011;56190;43.562;5.036;2024-01-30T10:26:56;11.52;;;8.55;;
69087;SDS011;56190;43.562;5.036;2024-01-30T10:29:21;11.63;;;8.38;;
69087;SDS011;56190;43.562;5.036;2024-01-30T10:31:56;11.25;;;8.20;;
69087;SDS011;56190;43.562;5.036;2024-01-30T10:34:22;11.90;;;8.70;;
69087;SDS011;56190;43.562;5.036;2024-01-30T10:36:47;12.32;;;7.93;;
69087;SDS011;56190;43.562;5.036;2024-01-30T10:39:14;8.25;;;7.32;;
69087;SDS011;56190;43.562;5.036;2024-01-30T10:41:44;10.15;;;6.95;;
69087;SDS011;56190;43.562;5.036;2024-01-30T10:44:10;9.85;;;7.05;;
69087;SDS011;56190;43.562;5.036;2024-01-30T10:46:37;6.43;;;5.18;;
69087;SDS011;56190;43.562;5.036;2024-01-30T10:49:02;9.57;;;5.78;;
69087;SDS011;56190;43.562;5.036;2024-01-30T10:51:29;7.13;;;6.22;;
69087;SDS011;56190;43.562;5.036;2024-01-30T10:53:55;9.95;;;6.82;;
69087;SDS011;56190;43.562;5.036;2024-01-30T10:56:20;7.70;;;6.60;;
69087;SDS011;56190;43.562;5.036;2024-01-30T10:58:46;9.15;;;7.35;;
69087;SDS011;56190;43.562;5.036;2024-01-30T11:01:11;9.82;;;7.03;;
69087;SDS011;56190;43.562;5.036;2024-01-30T11:03:38;9.60;;;6.43;;
69087;SDS011;56190;43.562;5.036;2024-01-30T11:06:03;8.15;;;5.20;;
69087;SDS011;56190;43.562;5.036;2024-01-30T11:08:28;10.43;;;6.07;;
69087;SDS011;56190;43.562;5.036;2024-01-30T11:10:57;7.88;;;5.30;;
69087;SDS011;56190;43.562;5.036;2024-01-30T11:13:26;6.75;;;5.32;;
69087;SDS011;56190;43.562;5.036;2024-01-30T11:15:51;7.88;;;5.57;;
69087;SDS011;56190;43.562;5.036;2024-01-30T11:18:23;8.73;;;5.78;;
69087;SDS011;56190;43.562;5.036;2024-01-30T11:20:49;12.20;;;5.93;;
69087;SDS011;56190;43.562;5.036;2024-01-30T11:23:14;8.40;;;6.13;;
69087;SDS011;56190;43.562;5.036;2024-01-30T11:25:39;8.77;;;6.00;;
69087;SDS011;56190;43.562;5.036;2024-01-30T11:28:05;8.27;;;5.22;;
69087;SDS011;56190;43.562;5.036;2024-01-30T11:30:31;7.93;;;5.68;;
69087;SDS011;56190;43.562;5.036;2024-01-30T11:35:24;7.78;;;6.00;;
69087;SDS011;56190;43.562;5.036;2024-01-30T11:37:50;9.55;;;6.70;;
69087;SDS011;56190;43.562;5.036;2024-01-30T11:40:16;8.90;;;5.78;;
69087;SDS011;56190;43.562;5.036;2024-01-30T11:42:41;8.98;;;6.18;;
69087;SDS011;56190;43.562;5.036;2024-01-30T11:45:07;13.65;;;4.75;;
69087;SDS011;56190;43.562;5.036;2024-01-30T11:47:34;8.60;;;4.95;;
69087;SDS011;56190;43.562;5.036;2024-01-30T11:49:59;6.63;;;5.30;;
69087;SDS011;56190;43.562;5.036;2024-01-30T11:52:25;5.80;;;5.05;;
69087;SDS011;56190;43.562;5.036;2024-01-30T11:54:50;9.50;;;5.30;;
69087;SDS011;56190;43.562;5.036;2024-01-30T11:57:15;6.78;;;4.72;;
69087;SDS011;56190;43.562;5.036;2024-01-30T11:59:40;6.90;;;5.45;;
69087;SDS011;56190;43.562;5.036;2024-01-30T12:02:06;8.20;;;5.63;;
69087;SDS011;56190;43.562;5.036;2024-01-30T12:04:31;7.40;;;5.57;;
69087;SDS011;56190;43.562;5.036;2024-01-30T12:06:56;6.72;;;5.78;;
69087;SDS011;56190;43.562;5.036;2024-01-30T12:09:22;8.25;;;5.30;;
69087;SDS011;56190;43.562;5.036;2024-01-30T12:11:48;7.70;;;5.82;;
69087;SDS011;56190;43.562;5.036;2024-01-30T12:14:14;7.10;;;5.70;;
69087;SDS011;56190;43.562;5.036;2024-01-30T12:16:40;8.27;;;5.72;;
69087;SDS011;56190;43.562;5.036;2024-01-30T12:19:06;6.97;;;5.35;;
69087;SDS011;56190;43.562;5.036;2024-01-30T12:21:31;7.85;;;5.38;;
69087;SDS011;56190;43.562;5.036;2024-01-30T12:23:57;7.55;;;6.00;;
69087;SDS011;56190;43.562;5.036;2024-01-30T12:26:23;6.85;;;5.35;;
69087;SDS011;56190;43.562;5.036;2024-01-30T12:28:49;7.53;;;5.43;;
69087;SDS011;56190;43.562;5.036;2024-01-30T12:31:17;9.65;;;5.85;;
69087;SDS011;56190;43.562;5.036;2024-01-30T12:33:42;9.25;;;5.55;;
69087;SDS011;56190;43.562;5.036;2024-01-30T12:36:07;5.60;;;5.05;;
69087;SDS011;56190;43.562;5.036;2024-01-30T12:38:32;6.53;;;5.13;;
69087;SDS011;56190;43.562;5.036;2024-01-30T12:40:58;9.13;;;5.70;;
69087;SDS011;56190;43.562;5.036;2024-01-30T12:43:26;7.32;;;5.05;;
69087;SDS011;56190;43.562;5.036;2024-01-30T12:45:54;7.03;;;4.72;;
69087;SDS011;56190;43.562;5.036;2024-01-30T12:48:20;6.95;;;4.70;;
69087;SDS011;56190;43.562;5.036;2024-01-30T12:50:46;9.75;;;4.88;;
69087;SDS011;56190;43.562;5.036;2024-01-30T12:53:12;5.88;;;4.93;;
69087;SDS011;56190;43.562;5.036;2024-01-30T12:55:38;6.20;;;4.35;;
69087;SDS011;56190;43.562;5.036;2024-01-30T12:58:03;5.50;;;4.95;;
69087;SDS011;56190;43.562;5.036;2024-01-30T13:00:28;5.72;;;4.57;;
69087;SDS011;56190;43.562;5.036;2024-01-30T13:02:54;8.43;;;4.30;;
69087;SDS011;56190;43.562;5.036;2024-01-30T13:05:19;5.22;;;4.50;;
69087;SDS011;56190;43.562;5.036;2024-01-30T13:07:45;6.18;;;4.47;;
69087;SDS011;56190;43.562;5.036;2024-01-30T13:10:10;4.88;;;4.38;;
69087;SDS011;56190;43.562;5.036;2024-01-30T13:12:35;6.10;;;5.00;;
69087;SDS011;56190;43.562;5.036;2024-01-30T13:15:02;9.23;;;4.70;;
69087;SDS011;56190;43.562;5.036;2024-01-30T13:17:28;5.82;;;4.10;;
69087;SDS011;56190;43.562;5.036;2024-01-30T13:19:54;6.90;;;4.72;;
69087;SDS011;56190;43.562;5.036;2024-01-30T13:22:19;4.88;;;4.28;;
69087;SDS011;56190;43.562;5.036;2024-01-30T13:24:46;6.88;;;4.47;;
69087;SDS011;56190;43.562;5.036;2024-01-30T13:27:12;9.07;;;4.80;;
69087;SDS011;56190;43.562;5.036;2024-01-30T13:29:37;8.88;;;5.35;;
69087;SDS011;56190;43.562;5.036;2024-01-30T13:32:03;10.68;;;5.05;;
69087;SDS011;56190;43.562;5.036;2024-01-30T13:34:28;8.70;;;5.20;;
69087;SDS011;56190;43.562;5.036;2024-01-30T13:36:53;8.27;;;5.07;;
69087;SDS011;56190;43.562;5.036;2024-01-30T13:39:18;6.63;;;4.55;;
69087;SDS011;56190;43.562;5.036;2024-01-30T13:41:44;7.38;;;4.82;;
69087;SDS011;56190;43.562;5.036;2024-01-30T13:44:09;7.57;;;4.80;;
69087;SDS011;56190;43.562;5.036;2024-01-30T13:46:34;7.05;;;4.30;;
69087;SDS011;56190;43.562;5.036;2024-01-30T13:49:00;5.55;;;4.50;;
69087;SDS011;56190;43.562;5.036;2024-01-30T13:51:26;5.57;;;4.20;;
69087;SDS011;56190;43.562;5.036;2024-01-30T13:53:51;6.68;;;4.75;;
69087;SDS011;56190;43.562;5.036;2024-01-30T13:56:16;8.52;;;4.50;;
69087;SDS011;56190;43.562;5.036;2024-01-30T13:58:42;5.32;;;4.55;;
69087;SDS011;56190;43.562;5.036;2024-01-30T14:01:07;6.88;;;4.80;;
69087;SDS011;56190;43.562;5.036;2024-01-30T14:03:34;6.18;;;4.80;;
69087;SDS011;56190;43.562;5.036;2024-01-30T14:06:00;5.47;;;4.80;;
69087;SDS011;56190;43.562;5.036;2024-01-30T14:08:25;5.72;;;4.55;;
69087;SDS011;56190;43.562;5.036;2024-01-30T14:10:53;7.10;;;4.20;;
69087;SDS011;56190;43.562;5.036;2024-01-30T14:13:18;6.38;;;4.30;;
69087;SDS011;56190;43.562;5.036;2024-01-30T14:15:43;9.13;;;4.80;;
69087;SDS011;56190;43.562;5.036;2024-01-30T14:18:09;5.95;;;4.22;;
69087;SDS011;56190;43.562;5.036;2024-01-30T14:20:36;9.80;;;5.75;;
69087;SDS011;56190;43.562;5.036;2024-01-30T14:23:01;7.97;;;5.60;;
69087;SDS011;56190;43.562;5.036;2024-01-30T14:25:26;5.97;;;4.38;;
69087;SDS011;56190;43.562;5.036;2024-01-30T14:27:51;6.82;;;4.63;;
69087;SDS011;56190;43.562;5.036;2024-01-30T14:30:17;7.75;;;5.15;;
69087;SDS011;56190;43.562;5.036;2024-01-30T14:32:42;8.40;;;4.35;;
69087;SDS011;56190;43.562;5.036;2024-01-30T14:35:09;6.03;;;5.20;;